Flight Briefing

Flight
SQS73A
Departure Arrival
Sultan Aji Muhammad Sulaiman (WALL)
Click to view NOTAMS
Temindung / Samarinda (WALS)
Click to view NOTAMS
Departure Time Arrival Time
09:00 09.30
Aircraft Distance
C208B 49.8499
Departure METAR Arrival METAR
WALL 180930Z 29003KT 9999 FEW020 29/27 Q1006
Route



Notes



Additional Data
View recent IFR Routes data



Data Courtesy of FlightAware